createdAt,value
2018-12-26T00:03:00.322Z,99.90
2018-12-26T00:05:48.074Z,99.90
2018-12-26T00:08:37.545Z,99.90
2018-12-26T00:11:25.286Z,99.90
2018-12-26T00:14:13.039Z,99.90
2018-12-26T00:16:41.434Z,99.90
2018-12-26T00:19:09.836Z,99.90
2018-12-26T00:21:38.268Z,99.90
2018-12-26T00:24:06.706Z,99.90
2018-12-26T00:26:35.162Z,99.90
2018-12-26T00:29:03.700Z,99.90
2018-12-26T00:31:32.116Z,99.90
2018-12-26T00:34:00.543Z,99.90
2018-12-26T00:36:28.977Z,99.90
2018-12-26T00:38:57.472Z,99.90
2018-12-26T00:41:25.876Z,99.90
2018-12-26T00:43:54.303Z,99.90
2018-12-26T00:46:22.788Z,99.90
2018-12-26T00:48:51.261Z,99.90
2018-12-26T00:51:20.157Z,99.90
2018-12-26T00:53:48.552Z,99.90
2018-12-26T00:56:16.965Z,99.90
2018-12-26T00:58:45.544Z,99.90
2018-12-26T01:01:13.948Z,99.90
2018-12-26T01:03:42.377Z,99.90
2018-12-26T01:06:10.768Z,99.90
2018-12-26T01:08:39.177Z,99.90
2018-12-26T01:11:07.616Z,99.90
2018-12-26T01:13:36.007Z,99.90
2018-12-26T01:16:04.416Z,99.90
2018-12-26T01:18:33.044Z,99.90
2018-12-26T01:21:01.440Z,99.90
2018-12-26T01:23:29.844Z,99.90
2018-12-26T01:25:58.402Z,99.90
2018-12-26T01:28:26.794Z,99.90
2018-12-26T01:30:55.200Z,99.90
2018-12-26T01:33:23.645Z,99.90
2018-12-26T01:35:52.046Z,99.90
2018-12-26T01:38:20.453Z,99.90
2018-12-26T01:40:48.985Z,99.90
2018-12-26T01:43:17.384Z,99.90
2018-12-26T01:45:45.797Z,99.90
2018-12-26T01:48:14.217Z,99.90
2018-12-26T01:50:42.622Z,99.90
2018-12-26T01:53:11.025Z,99.90
2018-12-26T01:55:39.466Z,99.90
2018-12-26T01:58:07.860Z,99.90
2018-12-26T02:00:36.256Z,99.90
2018-12-26T02:03:04.695Z,99.90
2018-12-26T02:05:33.101Z,99.90
2018-12-26T02:08:01.728Z,99.90
2018-12-26T02:10:30.175Z,99.90
2018-12-26T02:12:58.564Z,99.90
2018-12-26T02:15:27.014Z,99.90
2018-12-26T02:17:55.413Z,99.90
2018-12-26T02:20:24.093Z,99.90
2018-12-26T02:22:52.825Z,99.90
2018-12-26T02:25:21.226Z,99.90
2018-12-26T02:27:49.625Z,99.90
2018-12-26T02:30:18.063Z,99.90
2018-12-26T02:32:46.461Z,99.90
2018-12-26T02:35:14.873Z,99.90
2018-12-26T02:37:43.313Z,99.90
2018-12-26T02:40:11.726Z,99.90
2018-12-26T02:42:40.159Z,99.90
2018-12-26T02:45:08.556Z,99.90
2018-12-26T02:47:36.952Z,99.90
2018-12-26T02:50:08.126Z,99.90
2018-12-26T02:52:36.525Z,99.90
2018-12-26T02:55:06.157Z,99.90
2018-12-26T02:57:34.552Z,99.90
2018-12-26T03:00:03.533Z,99.90
2018-12-26T03:02:31.951Z,99.90
2018-12-26T03:05:00.426Z,99.90
2018-12-26T03:07:28.828Z,99.90
2018-12-26T03:09:57.261Z,99.90
2018-12-26T03:12:25.665Z,99.90
2018-12-26T03:14:54.062Z,99.90
2018-12-26T03:17:22.488Z,99.90
2018-12-26T03:19:50.911Z,99.90
2018-12-26T03:22:19.285Z,99.90
2018-12-26T03:24:47.708Z,99.90
2018-12-26T03:27:16.338Z,99.90
2018-12-26T03:29:44.745Z,99.90
2018-12-26T03:32:14.143Z,99.90
2018-12-26T03:34:42.536Z,99.90
2018-12-26T03:37:11.004Z,99.90
2018-12-26T03:39:39.433Z,99.90
2018-12-26T03:42:07.901Z,99.90
2018-12-26T03:44:37.333Z,99.90
2018-12-26T03:47:06.200Z,99.90
2018-12-26T03:49:34.605Z,99.90
2018-12-26T03:52:03.867Z,99.90
2018-12-26T03:54:32.337Z,99.90
2018-12-26T03:57:05.948Z,99.90
2018-12-26T03:59:31.139Z,99.90
2018-12-26T04:01:59.601Z,99.90
2018-12-26T04:04:28.056Z,99.90
2018-12-26T04:06:56.620Z,99.90
2018-12-26T04:09:25.235Z,99.90
2018-12-26T04:11:53.693Z,99.90
2018-12-26T04:14:22.121Z,99.90
2018-12-26T04:16:50.960Z,99.90
2018-12-26T04:19:19.382Z,99.90
2018-12-26T04:21:47.789Z,99.90
2018-12-26T04:24:16.258Z,99.90
2018-12-26T04:26:44.683Z,99.90
2018-12-26T04:29:13.269Z,99.90
2018-12-26T04:31:41.665Z,99.90
2018-12-26T04:34:10.083Z,99.90
2018-12-26T04:36:38.517Z,99.90
2018-12-26T04:39:06.912Z,99.90
2018-12-26T04:41:35.345Z,99.90
2018-12-26T04:44:03.779Z,99.90
2018-12-26T04:46:32.183Z,99.90
2018-12-26T04:49:00.583Z,99.90
2018-12-26T04:51:29.092Z,99.90
2018-12-26T04:53:57.501Z,99.90
2018-12-26T04:56:25.894Z,99.90
2018-12-26T04:58:54.327Z,99.90
2018-12-26T05:01:22.722Z,99.90
2018-12-26T05:03:51.146Z,99.90
2018-12-26T05:06:19.550Z,99.90
2018-12-26T05:08:47.947Z,99.90
2018-12-26T05:11:16.535Z,99.90
2018-12-26T05:13:45.011Z,99.90
2018-12-26T05:16:13.417Z,99.90
2018-12-26T05:18:41.835Z,99.90
2018-12-26T05:21:10.257Z,99.90
2018-12-26T05:23:38.678Z,99.90
2018-12-26T05:26:07.157Z,99.90
2018-12-26T05:28:35.555Z,99.90
2018-12-26T05:31:04.124Z,99.90
2018-12-26T05:33:32.570Z,99.90
2018-12-26T05:36:00.976Z,99.90
2018-12-26T05:38:29.417Z,99.90
2018-12-26T05:40:57.825Z,99.90
2018-12-26T05:43:26.222Z,99.90
2018-12-26T05:45:54.675Z,99.90
2018-12-26T05:48:23.064Z,99.90
2018-12-26T05:50:51.456Z,99.90
2018-12-26T05:53:20.011Z,99.90
2018-12-26T05:55:49.101Z,99.90
2018-12-26T05:58:17.506Z,99.90
2018-12-26T06:00:45.905Z,99.90
2018-12-26T06:03:14.377Z,99.90
2018-12-26T06:05:42.782Z,99.90
2018-12-26T06:08:11.184Z,99.90
2018-12-26T06:10:39.616Z,99.90
2018-12-26T06:13:08.017Z,99.90
2018-12-26T06:15:36.420Z,99.90
2018-12-26T06:18:24.185Z,99.90
2018-12-26T06:21:11.912Z,99.90
2018-12-26T06:23:59.687Z,99.90
2018-12-26T06:26:47.430Z,99.90
2018-12-26T06:32:28.957Z,99.90
2018-12-26T06:35:16.724Z,99.90
2018-12-26T06:38:04.456Z,99.90
2018-12-26T06:40:52.218Z,99.90
2018-12-26T06:43:39.952Z,99.90
2018-12-26T06:46:27.716Z,99.90
2018-12-26T06:49:15.457Z,99.90
2018-12-26T06:54:57.137Z,99.90
2018-12-26T06:57:37.893Z,99.90
2018-12-26T07:00:18.826Z,99.90
2018-12-26T07:02:59.621Z,99.90
2018-12-26T07:05:40.633Z,99.90
2018-12-26T07:08:21.297Z,99.90
2018-12-26T07:11:01.821Z,99.90
2018-12-26T07:13:42.345Z,99.90
2018-12-26T07:16:22.621Z,99.90
2018-12-26T07:19:03.109Z,99.90
2018-12-26T07:21:43.681Z,99.90
2018-12-26T07:24:24.397Z,99.90
2018-12-26T07:27:04.800Z,99.90
2018-12-26T07:29:45.699Z,99.90
2018-12-26T07:32:26.342Z,99.90
2018-12-26T07:35:06.958Z,99.90
2018-12-26T07:37:48.000Z,99.90
2018-12-26T07:40:28.408Z,99.90
2018-12-26T07:43:09.001Z,99.90
2018-12-26T07:45:49.844Z,99.90
2018-12-26T07:48:30.587Z,99.90
2018-12-26T07:51:10.721Z,99.90
2018-12-26T07:53:51.130Z,99.90
2018-12-26T07:56:31.827Z,99.90
2018-12-26T07:59:10.463Z,99.90
2018-12-26T08:01:58.236Z,99.90
2018-12-26T08:04:45.982Z,99.90
2018-12-26T08:07:33.757Z,99.90
2018-12-26T08:10:21.493Z,99.90
2018-12-26T08:13:09.261Z,99.90
2018-12-26T08:15:57.000Z,99.90
2018-12-26T08:18:44.775Z,99.90
2018-12-26T08:21:32.537Z,99.90
2018-12-26T08:24:00.940Z,99.90
2018-12-26T08:26:29.344Z,99.90
2018-12-26T08:29:17.109Z,99.90
2018-12-26T08:32:04.844Z,99.90
2018-12-26T08:34:52.625Z,99.90
2018-12-26T08:37:40.365Z,99.90
2018-12-26T08:43:22.076Z,99.90
2018-12-26T08:46:09.841Z,99.90
2018-12-26T08:48:57.589Z,99.90
2018-12-26T08:51:45.361Z,99.90
2018-12-26T08:54:33.102Z,99.90
2018-12-26T08:57:01.557Z,99.90
2018-12-26T08:59:49.291Z,99.90
2018-12-26T09:02:37.060Z,99.90
2018-12-26T09:05:24.812Z,99.90
2018-12-26T09:07:53.229Z,99.90
2018-12-26T09:10:40.964Z,99.90
2018-12-26T09:13:28.724Z,99.90
2018-12-26T09:16:16.462Z,99.90
2018-12-26T09:19:04.220Z,99.90
2018-12-26T09:21:51.957Z,99.90
2018-12-26T09:24:39.717Z,99.90
2018-12-26T09:30:21.020Z,99.90
2018-12-26T09:33:08.780Z,99.90
2018-12-26T09:35:56.523Z,99.50
2018-12-26T09:38:44.276Z,99.40
2018-12-26T09:41:32.014Z,99.00
2018-12-26T09:47:14.917Z,98.90
2018-12-26T09:50:02.676Z,98.80
2018-12-26T09:52:50.408Z,98.70
2018-12-26T09:55:38.181Z,98.60
2018-12-26T09:58:18.706Z,98.60
2018-12-26T10:00:59.029Z,98.60
2018-12-26T10:03:39.886Z,98.10
2018-12-26T10:06:20.061Z,97.70
2018-12-26T10:09:00.761Z,97.20
2018-12-26T10:11:41.109Z,96.90
2018-12-26T10:14:21.809Z,96.50
2018-12-26T10:17:02.810Z,96.50
2018-12-26T10:19:43.852Z,96.30
2018-12-26T10:22:24.194Z,96.10
2018-12-26T10:25:04.580Z,96.20
2018-12-26T10:27:45.433Z,96.00
2018-12-26T10:30:25.015Z,95.80
2018-12-26T10:33:12.778Z,95.30
2018-12-26T10:36:00.522Z,95.20
2018-12-26T10:38:48.280Z,95.00
2018-12-26T10:41:36.017Z,94.60
2018-12-26T10:47:17.014Z,93.80
2018-12-26T10:50:25.509Z,93.90
2018-12-26T10:53:13.249Z,93.90
2018-12-26T10:58:54.633Z,93.00
2018-12-26T11:01:42.408Z,93.10
2018-12-26T11:07:38.691Z,92.30
2018-12-26T11:10:26.839Z,91.80
2018-12-26T11:16:08.172Z,91.10
2018-12-26T11:18:55.945Z,90.80
2018-12-26T11:21:43.689Z,90.80
2018-12-26T11:24:31.448Z,90.40
2018-12-26T11:27:19.196Z,90.40
2018-12-26T11:30:27.685Z,90.00
2018-12-26T11:33:15.419Z,89.80
2018-12-26T11:36:03.189Z,90.30
2018-12-26T11:38:50.933Z,89.90
2018-12-26T11:41:38.705Z,88.70
2018-12-26T11:44:26.445Z,89.10
2018-12-26T11:47:14.218Z,88.70
2018-12-26T11:50:01.963Z,89.60
2018-12-26T11:52:49.733Z,89.70
2018-12-26T11:55:37.464Z,88.60
2018-12-26T11:58:25.237Z,87.40
2018-12-26T12:01:12.999Z,86.90
2018-12-26T12:04:00.738Z,86.40
2018-12-26T12:09:41.540Z,85.40
2018-12-26T12:12:29.313Z,85.40
2018-12-26T12:15:17.041Z,83.30
2018-12-26T12:18:04.801Z,80.60
2018-12-26T12:20:52.569Z,79.20
2018-12-26T12:23:40.293Z,78.30
2018-12-26T12:26:28.413Z,76.70
2018-12-26T12:29:10.209Z,76.10
2018-12-26T12:31:50.668Z,77.80
2018-12-26T12:34:31.455Z,77.90
2018-12-26T12:37:12.417Z,77.90
2018-12-26T12:39:40.812Z,76.90
2018-12-26T12:42:09.216Z,76.60
2018-12-26T12:44:37.639Z,76.60
2018-12-26T12:50:12.933Z,77.30
2018-12-26T12:55:53.934Z,75.20
2018-12-26T12:58:41.779Z,74.90
2018-12-26T13:04:36.420Z,72.70
2018-12-26T13:07:24.152Z,72.10
2018-12-26T13:10:11.918Z,72.40
2018-12-26T13:12:59.644Z,73.50
2018-12-26T13:15:47.409Z,73.50
2018-12-26T13:18:35.174Z,72.60
2018-12-26T13:21:22.932Z,72.80
2018-12-26T13:24:10.663Z,72.60
2018-12-26T13:26:39.095Z,73.10
2018-12-26T13:29:26.829Z,73.60
2018-12-26T13:32:14.651Z,73.50
2018-12-26T13:35:02.411Z,74.10
2018-12-26T13:37:50.172Z,73.30
2018-12-26T13:40:37.907Z,72.60
2018-12-26T13:46:18.924Z,70.20
2018-12-26T13:49:06.644Z,71.80
2018-12-26T13:51:54.400Z,72.80
2018-12-26T13:54:42.124Z,73.50
2018-12-26T13:57:29.891Z,75.00
2018-12-26T14:00:17.625Z,74.80
2018-12-26T14:05:39.949Z,75.70
2018-12-26T14:08:08.389Z,76.20
2018-12-26T14:10:36.785Z,76.10
2018-12-26T14:13:24.561Z,75.90
2018-12-26T14:16:12.308Z,76.30
2018-12-26T14:19:00.056Z,77.00
2018-12-26T14:21:47.834Z,77.90
2018-12-26T14:24:35.582Z,78.60
2018-12-26T14:30:30.228Z,79.70
2018-12-26T14:33:18.090Z,79.90
2018-12-26T14:36:07.445Z,80.60
2018-12-26T14:38:55.322Z,80.80
2018-12-26T14:41:44.688Z,81.30
2018-12-26T14:44:32.412Z,82.10
2018-12-26T14:47:20.436Z,81.70
2018-12-26T14:50:08.164Z,81.50
2018-12-26T14:52:55.929Z,81.30
2018-12-26T14:55:43.661Z,81.30
2018-12-26T14:58:31.428Z,81.50
2018-12-26T15:01:19.170Z,81.80
2018-12-26T15:04:06.924Z,82.30
2018-12-26T15:06:54.658Z,83.40
2018-12-26T15:09:42.888Z,83.90
2018-12-26T15:12:30.652Z,84.60
2018-12-26T15:15:18.387Z,85.30
2018-12-26T15:18:06.156Z,85.90
2018-12-26T15:20:53.888Z,86.10
2018-12-26T15:23:41.650Z,86.30
2018-12-26T15:26:22.507Z,86.70
2018-12-26T15:29:01.365Z,87.50
2018-12-26T15:31:49.133Z,88.40
2018-12-26T15:34:36.858Z,89.00
2018-12-26T15:37:24.629Z,89.50
2018-12-26T15:40:12.349Z,89.80
2018-12-26T15:43:00.163Z,90.10
2018-12-26T15:45:47.927Z,90.30
2018-12-26T15:48:35.711Z,90.60
2018-12-26T15:51:23.449Z,90.90
2018-12-26T15:57:05.001Z,91.50
2018-12-26T15:59:52.728Z,91.80
2018-12-26T16:02:40.496Z,92.20
2018-12-26T16:05:28.228Z,92.60
2018-12-26T16:08:15.993Z,93.00
2018-12-26T16:11:03.723Z,93.20
2018-12-26T16:13:51.480Z,93.40
2018-12-26T16:16:39.222Z,93.40
2018-12-26T16:19:26.992Z,93.60
2018-12-26T16:22:14.737Z,93.80
2018-12-26T16:25:02.677Z,94.00
2018-12-26T16:27:50.412Z,94.20
2018-12-26T16:30:30.874Z,94.20
2018-12-26T16:33:11.268Z,94.30
2018-12-26T16:35:51.704Z,94.40
2018-12-26T16:38:32.162Z,94.50
2018-12-26T16:41:12.666Z,94.50
2018-12-26T16:43:53.301Z,94.60
2018-12-26T16:46:33.566Z,94.50
2018-12-26T16:49:14.301Z,94.60
2018-12-26T16:51:42.741Z,94.70
2018-12-26T16:54:11.137Z,94.70
2018-12-26T16:56:39.529Z,94.70
2018-12-26T17:02:20.748Z,94.80
2018-12-26T17:05:08.528Z,94.90
2018-12-26T17:10:43.704Z,95.20
2018-12-26T17:13:31.440Z,95.00
2018-12-26T17:16:19.211Z,95.10
2018-12-26T17:19:06.945Z,95.10
2018-12-26T17:21:54.716Z,95.20
2018-12-26T17:24:42.449Z,95.20
2018-12-26T17:30:24.085Z,95.30
2018-12-26T17:33:11.853Z,95.40
2018-12-26T17:35:59.584Z,95.50
2018-12-26T17:41:40.732Z,95.70
2018-12-26T17:44:28.571Z,95.80
2018-12-26T17:47:16.314Z,95.90
2018-12-26T17:50:23.576Z,96.10
2018-12-26T17:53:03.828Z,96.10
2018-12-26T17:55:44.681Z,96.20
2018-12-26T17:58:25.304Z,96.20
2018-12-26T18:01:12.797Z,96.30
2018-12-26T18:03:35.952Z,96.40
2018-12-26T18:06:23.680Z,96.50
2018-12-26T18:09:11.446Z,96.50
2018-12-26T18:12:11.186Z,96.50
2018-12-26T18:14:48.673Z,96.70
2018-12-26T18:17:36.406Z,96.80
2018-12-26T18:20:24.177Z,96.90
2018-12-26T18:23:11.917Z,96.80
2018-12-26T18:25:59.684Z,96.90
2018-12-26T18:28:47.509Z,97.00
2018-12-26T18:31:36.813Z,97.10
2018-12-26T18:40:33.144Z,97.30
2018-12-26T18:43:20.921Z,97.30
2018-12-26T18:46:08.652Z,97.40
2018-12-26T18:48:56.424Z,97.60
2018-12-26T18:51:44.194Z,97.60
2018-12-26T18:54:31.925Z,97.50
2018-12-26T18:57:12.332Z,97.60
2018-12-26T18:59:52.809Z,97.80
2018-12-26T19:02:21.233Z,97.80
2018-12-26T19:05:09.051Z,97.90
2018-12-26T19:07:56.809Z,98.00
2018-12-26T19:10:25.209Z,98.00
2018-12-26T19:12:53.610Z,98.20
2018-12-26T19:15:22.049Z,98.30
2018-12-26T19:17:50.441Z,98.40
2018-12-26T19:20:18.880Z,98.60
2018-12-26T19:22:47.304Z,98.60
2018-12-26T19:25:15.720Z,98.60
2018-12-26T19:27:44.104Z,98.50
2018-12-26T19:30:12.550Z,98.60
2018-12-26T19:32:40.944Z,98.70
2018-12-26T19:35:12.912Z,98.60
2018-12-26T19:37:41.358Z,98.60
2018-12-26T19:40:09.752Z,98.70
2018-12-26T19:42:38.193Z,98.60
2018-12-26T19:45:08.334Z,98.60
2018-12-26T19:47:36.741Z,98.50
2018-12-26T19:50:07.914Z,98.60
2018-12-26T19:52:36.300Z,98.70
2018-12-26T19:55:07.143Z,98.80
2018-12-26T19:57:35.668Z,98.80
2018-12-26T20:00:05.212Z,98.90
2018-12-26T20:02:33.892Z,98.70
2018-12-26T20:05:02.330Z,98.70
2018-12-26T20:07:30.828Z,98.80
2018-12-26T20:09:59.246Z,98.70
2018-12-26T20:12:27.643Z,98.50
2018-12-26T20:14:56.157Z,98.50
2018-12-26T20:17:24.552Z,98.60
2018-12-26T20:19:52.952Z,98.50
2018-12-26T20:22:21.381Z,98.60
2018-12-26T20:24:49.795Z,98.80
2018-12-26T20:27:18.225Z,98.80
2018-12-26T20:29:46.616Z,98.80
2018-12-26T20:32:15.025Z,98.90
2018-12-26T20:34:43.464Z,98.90
2018-12-26T20:37:11.865Z,98.80
2018-12-26T20:39:40.264Z,98.70
2018-12-26T20:42:08.699Z,98.80
2018-12-26T20:44:37.092Z,98.80
2018-12-26T20:47:05.497Z,98.90
2018-12-26T20:49:34.008Z,98.90
2018-12-26T20:52:02.400Z,98.90
2018-12-26T20:54:30.796Z,98.90
2018-12-26T20:56:59.236Z,98.80
2018-12-26T20:59:27.629Z,98.80
2018-12-26T21:01:56.025Z,98.70
2018-12-26T21:04:24.468Z,98.70
2018-12-26T21:06:53.517Z,98.80
2018-12-26T21:09:22.018Z,98.80
2018-12-26T21:11:50.437Z,98.80
2018-12-26T21:14:18.894Z,98.60
2018-12-26T21:16:54.741Z,98.50
2018-12-26T21:19:17.542Z,98.50
2018-12-26T21:21:45.938Z,98.70
2018-12-26T21:24:14.332Z,98.60
2018-12-26T21:26:42.765Z,98.70
2018-12-26T21:29:11.162Z,98.70
2018-12-26T21:31:39.656Z,98.50
2018-12-26T21:34:08.148Z,98.50
2018-12-26T21:36:36.573Z,98.40
2018-12-26T21:39:06.779Z,98.40
2018-12-26T21:41:35.196Z,98.40
2018-12-26T21:44:03.703Z,98.30
2018-12-26T21:46:32.214Z,98.30
2018-12-26T21:49:00.623Z,98.20
2018-12-26T21:51:29.059Z,98.20
2018-12-26T21:53:57.696Z,98.10
2018-12-26T21:56:26.088Z,98.00
2018-12-26T21:58:54.494Z,97.80
2018-12-26T22:01:22.928Z,97.60
2018-12-26T22:03:51.325Z,97.50
2018-12-26T22:06:19.720Z,97.50
2018-12-26T22:08:48.163Z,97.60
2018-12-26T22:11:16.558Z,97.50
2018-12-26T22:13:44.961Z,97.40
2018-12-26T22:16:13.395Z,97.40
2018-12-26T22:18:41.792Z,97.40
2018-12-26T22:21:10.400Z,97.30
2018-12-26T22:23:38.801Z,97.10
2018-12-26T22:26:07.197Z,97.10
2018-12-26T22:28:35.631Z,97.00
2018-12-26T22:31:04.029Z,97.00
2018-12-26T22:33:32.453Z,97.00
2018-12-26T22:36:00.880Z,96.90
2018-12-26T22:38:29.326Z,97.00
2018-12-26T22:40:57.775Z,96.90
2018-12-26T22:43:26.160Z,96.90
2018-12-26T22:45:54.553Z,96.90
2018-12-26T22:48:23.076Z,97.00
2018-12-26T22:50:51.472Z,97.00
2018-12-26T22:53:19.901Z,96.90
2018-12-26T22:55:48.294Z,96.80
2018-12-26T22:58:16.687Z,96.80
2018-12-26T23:00:47.023Z,96.70
2018-12-26T23:03:15.421Z,96.60
2018-12-26T23:05:44.046Z,96.50
2018-12-26T23:08:12.849Z,96.40
2018-12-26T23:10:41.245Z,96.50
2018-12-26T23:13:09.637Z,96.40
2018-12-26T23:15:38.090Z,96.40
2018-12-26T23:18:06.481Z,96.40
2018-12-26T23:20:34.914Z,96.40
2018-12-26T23:23:03.325Z,96.50
2018-12-26T23:25:31.711Z,96.40
2018-12-26T23:28:00.116Z,96.50
2018-12-26T23:30:28.559Z,96.50
2018-12-26T23:32:56.960Z,96.50
2018-12-26T23:35:25.359Z,96.60
2018-12-26T23:37:54.103Z,96.60
2018-12-26T23:40:22.501Z,96.50
2018-12-26T23:42:50.899Z,96.60
2018-12-26T23:45:19.329Z,96.50
2018-12-26T23:47:47.952Z,96.30
2018-12-26T23:50:16.410Z,96.30
2018-12-26T23:52:44.836Z,96.20
2018-12-26T23:55:13.243Z,95.90
2018-12-26T23:57:41.644Z,95.90
